sensor_id;sensor_type;location;lat;lon;timestamp;pressure;altitude;pressure_sealevel;temperature;humidity
21086;BME280;34247;50.064;19.970;2023-01-28T00:01:13;99729.50;;;1.51;73.28
21086;BME280;34247;50.064;19.970;2023-01-28T00:02:17;99723.56;;;1.46;73.45
21086;BME280;34247;50.064;19.970;2023-01-28T00:03:21;99721.72;;;1.50;73.37
21086;BME280;34247;50.064;19.970;2023-01-28T00:04:25;99728.66;;;1.52;73.79
21086;BME280;34247;50.064;19.970;2023-01-28T00:05:30;99732.06;;;1.54;73.58
21086;BME280;34247;50.064;19.970;2023-01-28T00:06:36;99728.56;;;1.55;73.50
21086;BME280;34247;50.064;19.970;2023-01-28T00:07:40;99727.59;;;1.58;73.24
21086;BME280;34247;50.064;19.970;2023-01-28T00:08:45;99722.31;;;1.61;73.31
21086;BME280;34247;50.064;19.970;2023-01-28T00:09:50;99724.09;;;1.59;73.22
21086;BME280;34247;50.064;19.970;2023-01-28T00:10:57;99722.47;;;1.55;73.15
21086;BME280;34247;50.064;19.970;2023-01-28T00:12:00;99719.03;;;1.53;73.36
21086;BME280;34247;50.064;19.970;2023-01-28T00:13:06;99717.09;;;1.61;73.30
21086;BME280;34247;50.064;19.970;2023-01-28T00:14:11;99721.47;;;1.60;73.36
21086;BME280;34247;50.064;19.970;2023-01-28T00:15:15;99723.19;;;1.61;73.32
21086;BME280;34247;50.064;19.970;2023-01-28T00:16:20;99715.19;;;1.66;73.42
21086;BME280;34247;50.064;19.970;2023-01-28T00:17:29;99721.28;;;1.66;73.50
21086;BME280;34247;50.064;19.970;2023-01-28T00:18:37;99723.88;;;1.68;73.27
21086;BME280;34247;50.064;19.970;2023-01-28T00:19:43;99719.47;;;1.70;73.07
21086;BME280;34247;50.064;19.970;2023-01-28T00:21:01;99723.84;;;1.70;73.11
21086;BME280;34247;50.064;19.970;2023-01-28T00:22:06;99719.41;;;1.72;72.90
21086;BME280;34247;50.064;19.970;2023-01-28T00:23:10;99724.78;;;1.67;73.27
21086;BME280;34247;50.064;19.970;2023-01-28T00:24:14;99728.22;;;1.69;72.97
21086;BME280;34247;50.064;19.970;2023-01-28T00:25:18;99727.41;;;1.67;73.08
21086;BME280;34247;50.064;19.970;2023-01-28T00:26:23;99728.25;;;1.68;73.30
21086;BME280;34247;50.064;19.970;2023-01-28T00:27:27;99724.88;;;1.62;73.35
21086;BME280;34247;50.064;19.970;2023-01-28T00:28:32;99734.50;;;1.62;73.26
21086;BME280;34247;50.064;19.970;2023-01-28T00:29:39;99731.84;;;1.63;73.39
21086;BME280;34247;50.064;19.970;2023-01-28T00:30:43;99733.59;;;1.63;73.64
21086;BME280;34247;50.064;19.970;2023-01-28T00:31:47;99726.56;;;1.65;73.28
21086;BME280;34247;50.064;19.970;2023-01-28T00:32:53;99730.03;;;1.67;73.59
21086;BME280;34247;50.064;19.970;2023-01-28T00:33:58;99735.22;;;1.69;73.33
21086;BME280;34247;50.064;19.970;2023-01-28T00:35:03;99732.53;;;1.70;73.34
21086;BME280;34247;50.064;19.970;2023-01-28T00:36:07;99733.56;;;1.64;73.52
21086;BME280;34247;50.064;19.970;2023-01-28T00:37:12;99736.16;;;1.64;73.41
21086;BME280;34247;50.064;19.970;2023-01-28T00:38:15;99731.03;;;1.61;73.80
21086;BME280;34247;50.064;19.970;2023-01-28T00:39:19;99736.22;;;1.63;73.56
21086;BME280;34247;50.064;19.970;2023-01-28T00:40:23;99731.03;;;1.61;73.86
21086;BME280;34247;50.064;19.970;2023-01-28T00:41:29;99725.75;;;1.63;73.85
21086;BME280;34247;50.064;19.970;2023-01-28T00:42:33;99737.03;;;1.65;73.45
21086;BME280;34247;50.064;19.970;2023-01-28T00:43:38;99737.88;;;1.67;73.59
21086;BME280;34247;50.064;19.970;2023-01-28T00:44:43;99736.97;;;1.68;73.78
21086;BME280;34247;50.064;19.970;2023-01-28T00:45:47;99744.09;;;1.61;73.56
21086;BME280;34247;50.064;19.970;2023-01-28T00:46:53;99732.78;;;1.61;73.68
21086;BME280;34247;50.064;19.970;2023-01-28T00:47:57;99738.00;;;1.61;73.69
21086;BME280;34247;50.064;19.970;2023-01-28T00:49:01;99730.16;;;1.61;73.89
21086;BME280;34247;50.064;19.970;2023-01-28T00:50:06;99728.44;;;1.60;73.59
21086;BME280;34247;50.064;19.970;2023-01-28T00:51:13;99738.06;;;1.58;73.50
21086;BME280;34247;50.064;19.970;2023-01-28T00:52:17;99737.19;;;1.59;73.46
21086;BME280;34247;50.064;19.970;2023-01-28T00:53:21;99733.78;;;1.55;73.53
21086;BME280;34247;50.064;19.970;2023-01-28T00:54:24;99732.97;;;1.53;73.99
21086;BME280;34247;50.064;19.970;2023-01-28T00:55:29;99737.34;;;1.53;74.06
21086;BME280;34247;50.064;19.970;2023-01-28T00:56:34;99741.75;;;1.51;74.08
21086;BME280;34247;50.064;19.970;2023-01-28T00:57:39;99739.22;;;1.48;73.82
21086;BME280;34247;50.064;19.970;2023-01-28T00:58:44;99737.44;;;1.48;74.16
21086;BME280;34247;50.064;19.970;2023-01-28T00:59:49;99733.94;;;1.49;74.11
21086;BME280;34247;50.064;19.970;2023-01-28T01:00:53;99734.72;;;1.53;73.96
21086;BME280;34247;50.064;19.970;2023-01-28T01:01:57;99737.34;;;1.53;74.23
21086;BME280;34247;50.064;19.970;2023-01-28T01:03:30;99731.38;;;1.48;74.33
21086;BME280;34247;50.064;19.970;2023-01-28T01:04:35;99730.50;;;1.47;74.67
21086;BME280;34247;50.064;19.970;2023-01-28T01:05:39;99743.63;;;1.46;74.51
21086;BME280;34247;50.064;19.970;2023-01-28T01:06:43;99733.03;;;1.50;74.31
21086;BME280;34247;50.064;19.970;2023-01-28T01:07:47;99738.22;;;1.52;74.21
21086;BME280;34247;50.064;19.970;2023-01-28T01:08:58;99738.06;;;1.58;74.22
21086;BME280;34247;50.064;19.970;2023-01-28T01:10:02;99732.13;;;1.53;74.27
21086;BME280;34247;50.064;19.970;2023-01-28T01:11:08;99735.66;;;1.50;74.28
21086;BME280;34247;50.064;19.970;2023-01-28T01:12:12;99734.72;;;1.53;74.50
21086;BME280;34247;50.064;19.970;2023-01-28T01:13:17;99736.44;;;1.54;74.38
21086;BME280;34247;50.064;19.970;2023-01-28T01:14:21;99736.31;;;1.58;74.13
21086;BME280;34247;50.064;19.970;2023-01-28T01:15:26;99737.25;;;1.56;74.38
21086;BME280;34247;50.064;19.970;2023-01-28T01:16:31;99744.16;;;1.60;74.45
21086;BME280;34247;50.064;19.970;2023-01-28T01:17:38;99739.69;;;1.63;74.30
21086;BME280;34247;50.064;19.970;2023-01-28T01:18:43;99735.31;;;1.64;74.10
21086;BME280;34247;50.064;19.970;2023-01-28T01:19:47;99737.19;;;1.59;74.40
21086;BME280;34247;50.064;19.970;2023-01-28T01:20:50;99736.31;;;1.60;74.17
21086;BME280;34247;50.064;19.970;2023-01-28T01:22:01;99737.31;;;1.54;74.28
21086;BME280;34247;50.064;19.970;2023-01-28T01:23:04;99749.56;;;1.52;74.57
21086;BME280;34247;50.064;19.970;2023-01-28T01:24:08;99735.53;;;1.55;74.67
21086;BME280;34247;50.064;19.970;2023-01-28T01:25:14;99740.81;;;1.53;74.69
21086;BME280;34247;50.064;19.970;2023-01-28T01:26:20;99738.06;;;1.58;74.38
21086;BME280;34247;50.064;19.970;2023-01-28T01:27:24;99761.66;;;1.56;74.67
21086;BME280;34247;50.064;19.970;2023-01-28T01:28:28;99740.81;;;1.53;74.76
21086;BME280;34247;50.064;19.970;2023-01-28T01:29:31;99745.34;;;1.47;75.06
21086;BME280;34247;50.064;19.970;2023-01-28T01:30:36;99746.97;;;1.51;74.97
21086;BME280;34247;50.064;19.970;2023-01-28T01:31:40;99755.66;;;1.53;75.04
21086;BME280;34247;50.064;19.970;2023-01-28T01:32:44;99746.81;;;1.57;74.89
21086;BME280;34247;50.064;19.970;2023-01-28T01:33:50;99752.00;;;1.58;74.59
21086;BME280;34247;50.064;19.970;2023-01-28T01:35:05;99752.06;;;1.57;74.80
21086;BME280;34247;50.064;19.970;2023-01-28T01:36:15;99751.09;;;1.61;74.75
21086;BME280;34247;50.064;19.970;2023-01-28T01:37:19;99756.38;;;1.59;74.69
21086;BME280;34247;50.064;19.970;2023-01-28T01:38:24;99758.09;;;1.59;74.94
21086;BME280;34247;50.064;19.970;2023-01-28T01:39:28;99749.41;;;1.58;74.84
21086;BME280;34247;50.064;19.970;2023-01-28T01:40:33;99759.00;;;1.58;74.64
21086;BME280;34247;50.064;19.970;2023-01-28T01:41:38;99752.91;;;1.57;74.71
21086;BME280;34247;50.064;19.970;2023-01-28T01:42:41;99756.41;;;1.58;74.96
21086;BME280;34247;50.064;19.970;2023-01-28T01:45:10;99750.25;;;1.59;74.85
21086;BME280;34247;50.064;19.970;2023-01-28T01:46:40;99757.19;;;1.61;74.68
21086;BME280;34247;50.064;19.970;2023-01-28T01:48:50;99751.06;;;1.62;74.44
21086;BME280;34247;50.064;19.970;2023-01-28T01:49:58;99761.47;;;1.64;74.61
21086;BME280;34247;50.064;19.970;2023-01-28T01:51:22;99758.09;;;1.59;74.94
21086;BME280;34247;50.064;19.970;2023-01-28T01:52:35;99761.72;;;1.55;75.35
21086;BME280;34247;50.064;19.970;2023-01-28T01:53:47;99762.47;;;1.60;75.44
21086;BME280;34247;50.064;19.970;2023-01-28T01:54:55;99758.09;;;1.60;75.10
21086;BME280;34247;50.064;19.970;2023-01-28T01:56:10;99765.91;;;1.62;75.00
21086;BME280;34247;50.064;19.970;2023-01-28T01:57:24;99755.34;;;1.65;74.87
21086;BME280;34247;50.064;19.970;2023-01-28T01:58:35;99755.44;;;1.62;74.91
21086;BME280;34247;50.064;19.970;2023-01-28T01:59:44;99758.94;;;1.61;74.99
21086;BME280;34247;50.064;19.970;2023-01-28T02:00:49;99762.38;;;1.63;74.89
21086;BME280;34247;50.064;19.970;2023-01-28T02:01:54;99758.00;;;1.63;74.79
21086;BME280;34247;50.064;19.970;2023-01-28T02:02:59;99760.66;;;1.62;74.72
21086;BME280;34247;50.064;19.970;2023-01-28T02:04:25;99755.44;;;1.62;74.86
21086;BME280;34247;50.064;19.970;2023-01-28T02:05:34;99761.63;;;1.59;74.63
21086;BME280;34247;50.064;19.970;2023-01-28T02:06:39;99763.34;;;1.59;74.88
21086;BME280;34247;50.064;19.970;2023-01-28T02:07:46;99765.22;;;1.54;74.84
21086;BME280;34247;50.064;19.970;2023-01-28T02:08:54;99762.56;;;1.55;74.98
21086;BME280;34247;50.064;19.970;2023-01-28T02:09:58;99761.00;;;1.48;75.21
21086;BME280;34247;50.064;19.970;2023-01-28T02:11:16;99761.75;;;1.52;75.13
21086;BME280;34247;50.064;19.970;2023-01-28T02:12:35;99763.53;;;1.51;75.26
21086;BME280;34247;50.064;19.970;2023-01-28T02:13:44;99770.53;;;1.51;75.38
21086;BME280;34247;50.064;19.970;2023-01-28T02:15:03;99766.13;;;1.53;75.32
21086;BME280;34247;50.064;19.970;2023-01-28T02:16:20;99763.53;;;1.51;75.13
21086;BME280;34247;50.064;19.970;2023-01-28T02:17:28;99768.94;;;1.45;75.11
21086;BME280;34247;50.064;19.970;2023-01-28T02:18:33;99764.56;;;1.46;75.31
21086;BME280;34247;50.064;19.970;2023-01-28T02:19:47;99765.50;;;1.42;75.55
21086;BME280;34247;50.064;19.970;2023-01-28T02:28:07;99773.41;;;1.40;75.68
21086;BME280;34247;50.064;19.970;2023-01-28T02:29:41;99773.66;;;1.28;75.77
21086;BME280;34247;50.064;19.970;2023-01-28T02:38:36;99763.00;;;1.37;75.70
21086;BME280;34247;50.064;19.970;2023-01-28T02:39:51;99760.56;;;1.29;75.97
21086;BME280;34247;50.064;19.970;2023-01-28T02:41:04;99774.47;;;1.31;76.12
21086;BME280;34247;50.064;19.970;2023-01-28T02:42:36;99760.53;;;1.31;76.09
21086;BME280;34247;50.064;19.970;2023-01-28T02:43:46;99764.84;;;1.33;76.14
21086;BME280;34247;50.064;19.970;2023-01-28T02:44:50;99761.28;;;1.36;75.94
21086;BME280;34247;50.064;19.970;2023-01-28T02:45:54;99756.91;;;1.36;75.79
21086;BME280;34247;50.064;19.970;2023-01-28T02:47:17;99761.31;;;1.34;75.94
21086;BME280;34247;50.064;19.970;2023-01-28T02:48:40;99762.97;;;1.38;75.85
21086;BME280;34247;50.064;19.970;2023-01-28T02:49:53;99759.50;;;1.36;75.93
21086;BME280;34247;50.064;19.970;2023-01-28T02:51:23;99760.50;;;1.32;76.20
21086;BME280;34247;50.064;19.970;2023-01-28T02:55:39;99767.38;;;1.36;76.32
21086;BME280;34247;50.064;19.970;2023-01-28T02:57:14;99769.16;;;1.34;76.38
21086;BME280;34247;50.064;19.970;2023-01-28T02:58:37;99769.03;;;1.41;76.29
21086;BME280;34247;50.064;19.970;2023-01-28T03:00:14;99770.81;;;1.38;76.12
21086;BME280;34247;50.064;19.970;2023-01-28T03:01:35;99764.59;;;1.43;76.08
21086;BME280;34247;50.064;19.970;2023-01-28T03:02:52;99767.19;;;1.44;76.06
21086;BME280;34247;50.064;19.970;2023-01-28T03:04:26;99773.41;;;1.40;75.80
21086;BME280;34247;50.064;19.970;2023-01-28T03:05:38;99776.78;;;1.44;76.04
21086;BME280;34247;50.064;19.970;2023-01-28T03:06:52;99779.63;;;1.34;75.99
21086;BME280;34247;50.064;19.970;2023-01-28T03:07:57;99781.25;;;1.40;76.09
21086;BME280;34247;50.064;19.970;2023-01-28T03:09:06;99776.06;;;1.37;76.22
21086;BME280;34247;50.064;19.970;2023-01-28T03:10:27;99777.81;;;1.38;76.27
21086;BME280;34247;50.064;19.970;2023-01-28T03:11:38;99774.25;;;1.41;75.83
21086;BME280;34247;50.064;19.970;2023-01-28T03:13:01;99774.25;;;1.41;75.91
21086;BME280;34247;50.064;19.970;2023-01-28T03:14:26;99772.53;;;1.40;76.08
21086;BME280;34247;50.064;19.970;2023-01-28T03:15:50;99769.88;;;1.41;76.03
21086;BME280;34247;50.064;19.970;2023-01-28T03:19:18;99764.59;;;1.43;76.01
21086;BME280;34247;50.064;19.970;2023-01-28T03:22:28;99768.94;;;1.45;75.81
21086;BME280;34247;50.064;19.970;2023-01-28T03:24:00;99770.59;;;1.48;75.67
21086;BME280;34247;50.064;19.970;2023-01-28T03:25:26;99762.75;;;1.48;75.89
21086;BME280;34247;50.064;19.970;2023-01-28T03:27:24;99768.03;;;1.45;75.98
21086;BME280;34247;50.064;19.970;2023-01-28T03:28:51;99771.47;;;1.48;75.97
21086;BME280;34247;50.064;19.970;2023-01-28T03:30:36;99761.22;;;1.37;75.86
21086;BME280;34247;50.064;19.970;2023-01-28T03:32:00;99763.84;;;1.39;76.13
21086;BME280;34247;50.064;19.970;2023-01-28T03:33:24;99769.88;;;1.41;75.98
21086;BME280;34247;50.064;19.970;2023-01-28T03:34:47;99768.25;;;1.35;76.36
21086;BME280;34247;50.064;19.970;2023-01-28T03:36:15;99765.72;;;1.32;76.33
21086;BME280;34247;50.064;19.970;2023-01-28T03:37:37;99753.56;;;1.30;76.37
21086;BME280;34247;50.064;19.970;2023-01-28T03:38:42;99761.41;;;1.31;76.51
21086;BME280;34247;50.064;19.970;2023-01-28T03:39:51;99767.41;;;1.35;76.36
21086;BME280;34247;50.064;19.970;2023-01-28T03:40:59;99756.97;;;1.33;76.25
21086;BME280;34247;50.064;19.970;2023-01-28T03:42:13;99769.06;;;1.37;76.33
21086;BME280;34247;50.064;19.970;2023-01-28T03:43:18;99767.38;;;1.36;76.60
21086;BME280;34247;50.064;19.970;2023-01-28T03:44:24;99765.59;;;1.37;76.38
21086;BME280;34247;50.064;19.970;2023-01-28T03:45:46;99778.00;;;1.29;76.28
21086;BME280;34247;50.064;19.970;2023-01-28T03:46:53;99765.78;;;1.31;76.31
21086;BME280;34247;50.064;19.970;2023-01-28T03:47:57;99773.63;;;1.29;76.20
21086;BME280;34247;50.064;19.970;2023-01-28T03:49:01;99768.34;;;1.32;76.18
21086;BME280;34247;50.064;19.970;2023-01-28T03:50:06;99766.53;;;1.34;76.25
21086;BME280;34247;50.064;19.970;2023-01-28T03:51:13;99773.56;;;1.32;76.16
21086;BME280;34247;50.064;19.970;2023-01-28T03:52:24;99766.53;;;1.34;76.32
21086;BME280;34247;50.064;19.970;2023-01-28T03:53:29;99774.34;;;1.36;76.39
21086;BME280;34247;50.064;19.970;2023-01-28T03:54:32;99777.06;;;1.33;76.65
21086;BME280;34247;50.064;19.970;2023-01-28T03:55:37;99781.31;;;1.37;76.46
21086;BME280;34247;50.064;19.970;2023-01-28T03:56:40;99772.69;;;1.33;76.45
21086;BME280;34247;50.064;19.970;2023-01-28T03:57:45;99772.59;;;1.36;76.24
21086;BME280;34247;50.064;19.970;2023-01-28T03:58:49;99783.19;;;1.32;76.43
21086;BME280;34247;50.064;19.970;2023-01-28T03:59:59;99777.09;;;1.31;76.25
21086;BME280;34247;50.064;19.970;2023-01-28T04:01:04;99776.31;;;1.26;76.05
21086;BME280;34247;50.064;19.970;2023-01-28T04:02:12;99775.38;;;1.30;76.34
21086;BME280;34247;50.064;19.970;2023-01-28T04:03:20;99785.00;;;1.28;76.28
21086;BME280;34247;50.064;19.970;2023-01-28T04:04:26;99774.50;;;1.30;76.30
21086;BME280;34247;50.064;19.970;2023-01-28T04:05:33;99776.19;;;1.32;76.10
21086;BME280;34247;50.064;19.970;2023-01-28T04:06:39;99786.53;;;1.37;76.16
21086;BME280;34247;50.064;19.970;2023-01-28T04:07:44;99776.91;;;1.39;75.95
21086;BME280;34247;50.064;19.970;2023-01-28T04:08:48;99779.59;;;1.36;76.15
21086;BME280;34247;50.064;19.970;2023-01-28T04:09:55;99773.44;;;1.38;76.00
21086;BME280;34247;50.064;19.970;2023-01-28T04:11:02;99779.66;;;1.33;76.10
21086;BME280;34247;50.064;19.970;2023-01-28T04:12:18;99782.16;;;1.37;76.34
21086;BME280;34247;50.064;19.970;2023-01-28T04:13:23;99778.59;;;1.42;76.06
21086;BME280;34247;50.064;19.970;2023-01-28T04:14:29;99776.78;;;1.44;75.88
21086;BME280;34247;50.064;19.970;2023-01-28T04:15:33;99782.06;;;1.42;75.97
21086;BME280;34247;50.064;19.970;2023-01-28T04:16:38;99778.63;;;1.40;76.14
21086;BME280;34247;50.064;19.970;2023-01-28T04:17:47;99769.88;;;1.41;76.01
21086;BME280;34247;50.064;19.970;2023-01-28T04:18:52;99776.91;;;1.39;76.17
21086;BME280;34247;50.064;19.970;2023-01-28T04:19:57;99783.91;;;1.38;76.14
21086;BME280;34247;50.064;19.970;2023-01-28T04:21:01;99785.66;;;1.38;76.00
21086;BME280;34247;50.064;19.970;2023-01-28T04:22:10;99793.53;;;1.36;76.23
21086;BME280;34247;50.064;19.970;2023-01-28T04:23:16;99778.72;;;1.35;76.11
21086;BME280;34247;50.064;19.970;2023-01-28T04:24:21;99794.41;;;1.35;76.32
21086;BME280;34247;50.064;19.970;2023-01-28T04:25:25;99790.03;;;1.36;75.97
21086;BME280;34247;50.064;19.970;2023-01-28T04:26:29;99785.66;;;1.36;76.41
21086;BME280;34247;50.064;19.970;2023-01-28T04:27:33;99785.63;;;1.40;76.38
21086;BME280;34247;50.064;19.970;2023-01-28T04:28:38;99790.78;;;1.43;76.19
21086;BME280;34247;50.064;19.970;2023-01-28T04:29:41;99782.09;;;1.41;76.14
21086;BME280;34247;50.064;19.970;2023-01-28T04:30:45;99782.06;;;1.42;76.05
21086;BME280;34247;50.064;19.970;2023-01-28T04:31:49;99788.28;;;1.36;76.24
21086;BME280;34247;50.064;19.970;2023-01-28T04:32:54;99780.34;;;1.41;76.20
21086;BME280;34247;50.064;19.970;2023-01-28T04:33:58;99781.16;;;1.43;76.28
21086;BME280;34247;50.064;19.970;2023-01-28T04:35:03;99785.50;;;1.46;76.11
21086;BME280;34247;50.064;19.970;2023-01-28T04:36:11;99788.97;;;1.46;76.08
21086;BME280;34247;50.064;19.970;2023-01-28T04:37:15;99785.41;;;1.49;76.26
21086;BME280;34247;50.064;19.970;2023-01-28T04:38:19;99787.06;;;1.53;75.95
21086;BME280;34247;50.064;19.970;2023-01-28T04:39:23;99783.59;;;1.52;76.04
21086;BME280;34247;50.064;19.970;2023-01-28T04:40:27;99790.53;;;1.52;75.69
21086;BME280;34247;50.064;19.970;2023-01-28T04:41:31;99799.28;;;1.52;75.88
21086;BME280;34247;50.064;19.970;2023-01-28T04:42:35;99802.81;;;1.50;75.74
21086;BME280;34247;50.064;19.970;2023-01-28T04:43:39;99791.44;;;1.52;75.84
21086;BME280;34247;50.064;19.970;2023-01-28T04:44:43;99790.63;;;1.49;75.88
21086;BME280;34247;50.064;19.970;2023-01-28T04:45:47;99786.22;;;1.52;75.53
21086;BME280;34247;50.064;19.970;2023-01-28T04:46:51;99789.78;;;1.48;75.60
21086;BME280;34247;50.064;19.970;2023-01-28T04:47:55;99789.78;;;1.48;75.55
21086;BME280;34247;50.064;19.970;2023-01-28T04:48:59;99791.56;;;1.46;75.42
21086;BME280;34247;50.064;19.970;2023-01-28T04:50:03;99796.81;;;1.46;75.45
21086;BME280;34247;50.064;19.970;2023-01-28T04:51:09;99795.81;;;1.50;75.58
21086;BME280;34247;50.064;19.970;2023-01-28T04:52:13;99797.53;;;1.53;75.64
21086;BME280;34247;50.064;19.970;2023-01-28T04:53:16;99792.25;;;1.54;75.40
21086;BME280;34247;50.064;19.970;2023-01-28T04:54:20;99794.06;;;1.51;75.69
21086;BME280;34247;50.064;19.970;2023-01-28T04:55:24;99792.28;;;1.53;75.53
21086;BME280;34247;50.064;19.970;2023-01-28T04:56:27;99801.00;;;1.52;75.45
21086;BME280;34247;50.064;19.970;2023-01-28T04:57:31;99786.25;;;1.49;75.34
21086;BME280;34247;50.064;19.970;2023-01-28T04:58:35;99793.28;;;1.47;75.40
21086;BME280;34247;50.064;19.970;2023-01-28T04:59:39;99791.66;;;1.42;75.37
21086;BME280;34247;50.064;19.970;2023-01-28T05:00:43;99796.09;;;1.40;75.13
21086;BME280;34247;50.064;19.970;2023-01-28T05:01:47;99793.53;;;1.36;75.62
21086;BME280;34247;50.064;19.970;2023-01-28T05:02:51;99802.19;;;1.40;75.32
21086;BME280;34247;50.064;19.970;2023-01-28T05:03:55;99797.13;;;1.32;75.20
21086;BME280;34247;50.064;19.970;2023-01-28T05:04:59;99793.56;;;1.35;75.23
21086;BME280;34247;50.064;19.970;2023-01-28T05:06:08;99797.94;;;1.34;75.50
21086;BME280;34247;50.064;19.970;2023-01-28T05:07:16;99794.72;;;1.23;75.83
21086;BME280;34247;50.064;19.970;2023-01-28T05:08:20;99803.44;;;1.24;75.68
21086;BME280;34247;50.064;19.970;2023-01-28T05:09:24;99806.00;;;1.25;75.78
21086;BME280;34247;50.064;19.970;2023-01-28T05:10:28;99803.38;;;1.25;75.59
21086;BME280;34247;50.064;19.970;2023-01-28T05:11:32;99806.81;;;1.27;75.49
21086;BME280;34247;50.064;19.970;2023-01-28T05:12:35;99801.50;;;1.32;75.64
21086;BME280;34247;50.064;19.970;2023-01-28T05:13:39;99806.63;;;1.35;75.57
21086;BME280;34247;50.064;19.970;2023-01-28T05:14:43;99803.25;;;1.31;75.50
21086;BME280;34247;50.064;19.970;2023-01-28T05:15:52;99811.06;;;1.33;75.24
21086;BME280;34247;50.064;19.970;2023-01-28T05:16:57;99806.59;;;1.36;75.10
21086;BME280;34247;50.064;19.970;2023-01-28T05:18:01;99809.22;;;1.38;75.32
21086;BME280;34247;50.064;19.970;2023-01-28T05:19:05;99818.03;;;1.32;75.31
21086;BME280;34247;50.064;19.970;2023-01-28T05:20:14;99818.88;;;1.34;75.42
21086;BME280;34247;50.064;19.970;2023-01-28T05:21:18;99815.34;;;1.35;75.15
21086;BME280;34247;50.064;19.970;2023-01-28T05:22:22;99816.16;;;1.39;75.37
21086;BME280;34247;50.064;19.970;2023-01-28T05:23:26;99810.88;;;1.41;75.05
21086;BME280;34247;50.064;19.970;2023-01-28T05:24:30;99824.91;;;1.36;75.41
21086;BME280;34247;50.064;19.970;2023-01-28T05:25:35;99821.31;;;1.42;75.44
21086;BME280;34247;50.064;19.970;2023-01-28T05:26:39;99818.59;;;1.47;75.17
21086;BME280;34247;50.064;19.970;2023-01-28T05:27:48;99827.34;;;1.46;75.37
21086;BME280;34247;50.064;19.970;2023-01-28T05:28:53;99824.69;;;1.47;74.99
21086;BME280;34247;50.064;19.970;2023-01-28T05:29:58;99826.41;;;1.48;75.21
21086;BME280;34247;50.064;19.970;2023-01-28T05:31:10;99821.13;;;1.50;75.18
21086;BME280;34247;50.064;19.970;2023-01-28T05:32:15;99819.31;;;1.52;75.16
21086;BME280;34247;50.064;19.970;2023-01-28T05:33:19;99822.84;;;1.51;75.34
21086;BME280;34247;50.064;19.970;2023-01-28T05:34:23;99821.09;;;1.51;75.37
21086;BME280;34247;50.064;19.970;2023-01-28T05:35:30;99821.03;;;1.54;75.37
21086;BME280;34247;50.064;19.970;2023-01-28T05:36:38;99828.03;;;1.54;75.19
21086;BME280;34247;50.064;19.970;2023-01-28T05:37:44;99827.13;;;1.55;75.01
21086;BME280;34247;50.064;19.970;2023-01-28T05:38:48;99826.13;;;1.59;75.00
21086;BME280;34247;50.064;19.970;2023-01-28T05:39:51;99822.66;;;1.58;74.87
21086;BME280;34247;50.064;19.970;2023-01-28T05:40:55;99827.13;;;1.55;75.01
21086;BME280;34247;50.064;19.970;2023-01-28T05:41:59;99827.13;;;1.55;75.21
21086;BME280;34247;50.064;19.970;2023-01-28T05:43:03;99820.06;;;1.58;75.17
21086;BME280;34247;50.064;19.970;2023-01-28T05:44:11;99824.47;;;1.56;75.03
21086;BME280;34247;50.064;19.970;2023-01-28T05:45:21;99822.03;;;1.49;74.74
21086;BME280;34247;50.064;19.970;2023-01-28T05:46:25;99819.31;;;1.52;74.81
21086;BME280;34247;50.064;19.970;2023-01-28T05:47:28;99823.69;;;1.53;74.71
21086;BME280;34247;50.064;19.970;2023-01-28T05:48:32;99823.69;;;1.53;74.79
21086;BME280;34247;50.064;19.970;2023-01-28T05:49:37;99831.53;;;1.53;74.63
21086;BME280;34247;50.064;19.970;2023-01-28T05:50:41;99834.13;;;1.54;74.71
21086;BME280;34247;50.064;19.970;2023-01-28T05:51:45;99820.34;;;1.46;74.20
21086;BME280;34247;50.064;19.970;2023-01-28T05:52:55;99823.78;;;1.48;74.33
21086;BME280;34247;50.064;19.970;2023-01-28T05:53:59;99828.13;;;1.49;74.46
21086;BME280;34247;50.064;19.970;2023-01-28T05:55:03;99832.50;;;1.49;74.30
21086;BME280;34247;50.064;19.970;2023-01-28T05:56:11;99832.63;;;1.43;74.46
21086;BME280;34247;50.064;19.970;2023-01-28T05:57:15;99837.94;;;1.40;74.66
21086;BME280;34247;50.064;19.970;2023-01-28T05:58:23;99833.59;;;1.38;74.37
21086;BME280;34247;50.064;19.970;2023-01-28T05:59:26;99836.41;;;1.31;74.70
21086;BME280;34247;50.064;19.970;2023-01-28T06:00:31;99831.16;;;1.29;74.73
21086;BME280;34247;50.064;19.970;2023-01-28T06:01:35;99840.75;;;1.30;74.91
21086;BME280;34247;50.064;19.970;2023-01-28T06:02:38;99840.75;;;1.30;74.68
21086;BME280;34247;50.064;19.970;2023-01-28T06:03:43;99845.09;;;1.30;74.87
21086;BME280;34247;50.064;19.970;2023-01-28T06:04:48;99838.19;;;1.27;74.81
21086;BME280;34247;50.064;19.970;2023-01-28T06:05:51;99850.34;;;1.31;74.88
21086;BME280;34247;50.064;19.970;2023-01-28T06:06:56;99843.22;;;1.36;74.62
21086;BME280;34247;50.064;19.970;2023-01-28T06:08:00;99846.69;;;1.38;74.66
21086;BME280;34247;50.064;19.970;2023-01-28T06:09:04;99847.63;;;1.34;74.42
21086;BME280;34247;50.064;19.970;2023-01-28T06:10:12;99853.75;;;1.33;74.69
21086;BME280;34247;50.064;19.970;2023-01-28T06:11:16;99850.28;;;1.33;74.60
21086;BME280;34247;50.064;19.970;2023-01-28T06:12:22;99846.94;;;1.26;74.24
21086;BME280;34247;50.064;19.970;2023-01-28T06:13:26;99857.41;;;1.26;74.64
21086;BME280;34247;50.064;19.970;2023-01-28T06:14:33;99855.53;;;1.33;74.43
21086;BME280;34247;50.064;19.970;2023-01-28T06:15:37;99858.19;;;1.31;74.74
21086;BME280;34247;50.064;19.970;2023-01-28T06:16:41;99855.47;;;1.34;74.65
21086;BME280;34247;50.064;19.970;2023-01-28T06:17:45;99861.63;;;1.33;74.45
21086;BME280;34247;50.064;19.970;2023-01-28T06:18:49;99862.56;;;1.29;74.42
21086;BME280;34247;50.064;19.970;2023-01-28T06:19:54;99862.50;;;1.32;74.39
21086;BME280;34247;50.064;19.970;2023-01-28T06:20:57;99863.50;;;1.27;74.31
21086;BME280;34247;50.064;19.970;2023-01-28T06:22:01;99862.69;;;1.25;74.47
21086;BME280;34247;50.064;19.970;2023-01-28T06:23:05;99866.19;;;1.24;74.39
21086;BME280;34247;50.064;19.970;2023-01-28T06:24:12;99860.97;;;1.22;74.43
21086;BME280;34247;50.064;19.970;2023-01-28T06:25:17;99868.81;;;1.24;74.44